Koksijde, België

4:03 PM CEST op 29 mei 2015 (GMT +0200)
Ostend | | Change Station
CLOSE
Current Station
Luchthaven
Location: Ostend,
Geometrische hoogte: 13 ft
Nabije weerstations

Hoogte 13 ft 51.20 °N, 2.86 °E | Updated 13 minutes ago

Mostly Cloudy
Merendeels bewolkt
55 °F
Voelt als 55 °F
N
26
Wind Variabel Wind van ZW

Vandaag
Hoog -- | Laag -- °F
--% Kans op neerslag
Gisteren
Hoog -- | Laag -- °F
Precip. -- inches
5:42 AM 9:51 PM
Wassende maan, 84% visible
Druk 29.77 inches
Zicht 6.2 mijlen
Wolken Gering 3000 ft
Merendeels bewolkt 4000 ft
Dauwpunt 45 °F
Vochtigheid 67%
Neerslag 0.00 inches
Dikte sneeuw Niet beschikbaar.
UV 4 van de 12
Pollen Niet beschikbaar.
Luchtkwaliteit Niet beschikbaar.
Flu Activity Niet beschikbaar.
METAR EBOS 291350Z 22023KT 9999 FEW030 BKN040 13/07 Q1008 TEMPO 23023G35KT

More Conditions Fewer Conditions

Druk 29.77 inches
Zicht 6.2 mijlen
Wolken Gering 3000 ft
Merendeels bewolkt 4000 ft
Dauwpunt 45 °F
Vochtigheid 67%
Neerslag 0.00 inches
Dikte sneeuw Niet beschikbaar.
UV 4 van de 12
Pollen Niet beschikbaar.
Luchtkwaliteit Niet beschikbaar.
Flu Activity Niet beschikbaar.
METAR EBOS 291350Z 22023KT 9999 FEW030 BKN040 13/07 Q1008 TEMPO 23023G35KT

More Conditions Fewer Conditions

10-Day Weather Forecast

Almanac

Astronomie

May. 29, 2015 Opkomst Ondergang
Werkelijke tijd
Burgerlijke schemering
Nautische schemering
Astronomische schemering
Maan
Golflengte van het zichtbare licht
Daglengte
Tomorrow will be .
, % of the Moon is Illuminated

Extremen vandaag

Country Highs Country Lows

Community

WunderPhotos

Upload Photos

1,825,271 foto’s ge-upload!

WunderBlogs® & News

Nearby

Luchtkwaliteit

  Luchtkwaliteit LK-index Verontreinigende stof
Not available.

Dikte sneeuw

Station Depth Geometrische hoogte

Aardbevingen

Stad Distance Mag. Time & Date
Minimum magnitude displayed is 2.5.

Watertemperatuur langs de kust

Plaats Temperatuur

Stations

Nabije weerstations

Locatie station Temp. Gevoelstemperatuur Dauwpunt Vochtigheid Wind Precip. Hoogte Geactualiseerd Type